Main page
METAR-TAF:

METAR-TAF

Airports :

Wake Island Airfield

Wake Island, United States

latitude: 19-17N, longitude: 166-39E, elevation: 4 m

Current weather observation

The report was made 16 minutes ago, at 01:58 UTC
Wind 12 kt from the East/Northeast
Temperature 27°C
Humidity 54%
Pressure 1015 hPa
Visibility 10 km or more
Scattered clouds at a height of 3300 ft
Broken clouds at a height of 4500 ft

METAR: PWAK 070158Z AUTO 06012KT 9999 SCT033 BKN045 27/17 A2998 RMK AO2 SLP159 T02720174 $

Time: 14:14 (02:14 UTC)

Forecast

The report was made 4 hours and 14 minutes ago, at 22:00 UTC
Forecast valid from 06 at 22 UTC to 08 at 04 UTC
Wind 15 kt from the East/Northeast
Visibility 10 km or more
Broken clouds at a height of 4000 ft

TAF: PWAK 062200Z 0622/0804 07015KT 9999 BKN040 QNH2997INS TX26/0708Z TN22/0717Z FOR MIL USE ONLY

Weather observations and forecasts of more than 4000 airports (METAR and TAF reports).

The available stations are represented by yellow and red dots on the map.

Hover mouse over dot to see the name of the station.

Then click to see weather observations and forecasts.

To change the map : click on the green buttons with a black cross to zoom in, on the green button with a dash to zoom out, or on the green arrows for adjacent maps.


METAR-TAF: